Bancroft, Iowa
Current Conditions -  °F | °C
As of 8:35 AM on Friday 31 Oct 2014 (Local Time) from KAXA Reporting Station
Clear Clear  
Wind Chill: 15°   Ceiling: Unl
Heat Index: 25°   Visibility: 10mi
Dew Point: 19°   Wind: 10mph
Humidity: 80%   Direction: 340°NNW
Pressure: 30.52"   Gusts: 16mph
Location:  43.29°N, 94.22°W
Report Text: KAXA 311335Z AUTO 34009G14KT 10SM CLR M04/M07 A3052 RMK AO2
Loading
Personal Weather Stations






























Interactive Weather Map
Tropical Storm Tracking
New forecast layout! Learn more

10-Day Weather Forecast

Advertisements
Track Severe Weather on mobile